Time;durP1;ratioP1;P1;durP2;ratioP2;P2;SDS_P1;SDS_P2;PMS_P1;PMS_P2;Temp;Humidity;BMP_temperature;BMP_pressure;BME280_temperature;BME280_humidity;BME280_pressure;Samples;Min_cycle;Max_cycle;Signal;HPM_P1;HPM_P2
2022/08/05 00:02:17;;;;;;;8.23;4.72;;;;;;;;;;5056886;28;20177;-67
2022/08/05 00:04:44;;;;;;;7.53;5.40;;;;;;;;;;5051711;28;20235;-67
2022/08/05 00:07:10;;;;;;;13.95;5.05;;;;;;;;;;5063083;28;20189;-67
2022/08/05 00:09:35;;;;;;;10.68;4.85;;;;;;;;;;5057181;28;20236;-69
2022/08/05 00:12:00;;;;;;;10.10;4.93;;;;;;;;;;5060508;28;20173;-67
2022/08/05 00:14:26;;;;;;;9.13;4.57;;;;;;;;;;5067784;28;20691;-67
2022/08/05 00:16:51;;;;;;;9.52;4.80;;;;;;;;;;5056777;28;20664;-67
2022/08/05 00:19:16;;;;;;;9.48;5.30;;;;;;;;;;5064412;28;20196;-67
2022/08/05 00:21:42;;;;;;;10.88;5.43;;;;;;;;;;5063419;28;20222;-67
2022/08/05 00:24:07;;;;;;;11.25;5.20;;;;;;;;;;5053357;28;20182;-67
2022/08/05 00:26:33;;;;;;;17.02;5.53;;;;;;;;;;5051165;28;20240;-67
2022/08/05 00:28:58;;;;;;;10.32;6.13;;;;;;;;;;5060880;28;20543;-67
2022/08/05 00:31:23;;;;;;;7.85;4.60;;;;;;;;;;5058202;28;20214;-67
2022/08/05 00:33:49;;;;;;;12.43;5.55;;;;;;;;;;5050995;28;20165;-67
2022/08/05 00:36:14;;;;;;;6.75;5.05;;;;;;;;;;5064705;28;20545;-67
2022/08/05 00:38:39;;;;;;;8.07;4.72;;;;;;;;;;5055025;28;20197;-67
2022/08/05 00:41:06;;;;;;;8.23;4.78;;;;;;;;;;5058222;28;20175;-67
2022/08/05 00:43:33;;;;;;;11.07;5.15;;;;;;;;;;5057822;28;20185;-67
2022/08/05 00:45:59;;;;;;;14.10;5.25;;;;;;;;;;5065068;28;20180;-67
2022/08/05 00:48:24;;;;;;;10.73;5.28;;;;;;;;;;5050695;28;20593;-67
2022/08/05 00:50:51;;;;;;;9.20;5.63;;;;;;;;;;5063670;28;20242;-67
2022/08/05 00:53:19;;;;;;;10.10;5.00;;;;;;;;;;5059488;28;20186;-67
2022/08/05 00:55:44;;;;;;;9.52;5.05;;;;;;;;;;5058983;28;20629;-67
2022/08/05 00:58:11;;;;;;;9.32;4.90;;;;;;;;;;5050210;28;20208;-67
2022/08/05 01:00:37;;;;;;;12.32;6.75;;;;;;;;;;5050830;28;20206;-67
2022/08/05 01:03:02;;;;;;;7.70;5.05;;;;;;;;;;5049600;28;20189;-67
2022/08/05 01:05:27;;;;;;;12.10;6.10;;;;;;;;;;5059428;28;20189;-67
2022/08/05 01:07:53;;;;;;;10.25;5.40;;;;;;;;;;5058639;28;20193;-67
2022/08/05 01:10:23;;;;;;;7.82;6.00;;;;;;;;;;5055006;28;20556;-67
2022/08/05 01:12:54;;;;;;;10.90;5.80;;;;;;;;;;5070186;28;20172;-67
2022/08/05 01:15:24;;;;;;;12.05;5.72;;;;;;;;;;5052633;28;20216;-68
2022/08/05 01:17:56;;;;;;;11.57;6.07;;;;;;;;;;5061154;28;20189;-68
2022/08/05 01:20:33;;;;;;;9.43;5.50;;;;;;;;;;5053191;28;20186;-68
2022/08/05 01:23:23;;;;;;;9.93;5.95;;;;;;;;;;5054507;28;20607;-68
2022/08/05 01:26:31;;;;;;;13.32;6.55;;;;;;;;;;5055095;28;20221;-68
2022/08/05 01:29:07;;;;;;;9.38;6.38;;;;;;;;;;5057759;28;20173;-68
2022/08/05 01:31:46;;;;;;;11.95;7.18;;;;;;;;;;5061760;28;20261;-68
2022/08/05 01:34:18;;;;;;;13.88;6.95;;;;;;;;;;5051799;28;20187;-68
2022/08/05 01:36:53;;;;;;;12.73;7.03;;;;;;;;;;5053821;28;20230;-67
2022/08/05 01:39:20;;;;;;;11.85;6.63;;;;;;;;;;5054385;28;20201;-67
2022/08/05 01:41:47;;;;;;;14.25;6.72;;;;;;;;;;5061553;28;20182;-67
2022/08/05 01:44:14;;;;;;;11.50;6.72;;;;;;;;;;5062569;28;20212;-67
2022/08/05 01:46:41;;;;;;;11.10;6.90;;;;;;;;;;5053020;28;20188;-68
2022/08/05 01:49:09;;;;;;;16.58;6.95;;;;;;;;;;5055261;28;20204;-68
2022/08/05 01:51:35;;;;;;;10.82;6.75;;;;;;;;;;5057879;28;20735;-68
2022/08/05 01:54:06;;;;;;;10.38;7.00;;;;;;;;;;5060970;28;20187;-68
2022/08/05 01:56:36;;;;;;;10.38;6.95;;;;;;;;;;5058004;28;20420;-68
2022/08/05 01:59:05;;;;;;;15.20;6.90;;;;;;;;;;5051916;28;20193;-68
2022/08/05 02:01:32;;;;;;;9.50;6.60;;;;;;;;;;5054313;28;20177;-68
2022/08/05 02:03:58;;;;;;;9.82;6.82;;;;;;;;;;5053570;28;20660;-68
2022/08/05 02:06:24;;;;;;;10.63;6.80;;;;;;;;;;5065945;28;20181;-68
2022/08/05 02:08:50;;;;;;;9.90;7.00;;;;;;;;;;5059475;28;20294;-68
2022/08/05 02:11:17;;;;;;;10.30;6.72;;;;;;;;;;5060904;28;20724;-68
2022/08/05 02:13:42;;;;;;;13.60;6.78;;;;;;;;;;5053996;28;20173;-68
2022/08/05 02:16:18;;;;;;;11.50;6.60;;;;;;;;;;5052767;28;20181;-68
2022/08/05 02:18:49;;;;;;;11.80;7.25;;;;;;;;;;5064054;28;20533;-68
2022/08/05 02:21:18;;;;;;;9.80;6.53;;;;;;;;;;5054465;28;20181;-68
2022/08/05 02:23:47;;;;;;;15.07;7.00;;;;;;;;;;5059386;28;22525;-68
2022/08/05 02:26:20;;;;;;;9.70;6.85;;;;;;;;;;5057170;28;20224;-68
2022/08/05 02:28:46;;;;;;;14.55;7.38;;;;;;;;;;5057872;28;20263;-68
2022/08/05 02:31:20;;;;;;;9.85;7.35;;;;;;;;;;5056040;28;20287;-68
2022/08/05 02:33:50;;;;;;;12.77;7.72;;;;;;;;;;5067592;28;20177;-68
2022/08/05 02:36:19;;;;;;;14.23;7.68;;;;;;;;;;5056502;28;20185;-68
2022/08/05 02:38:46;;;;;;;10.27;7.65;;;;;;;;;;5057425;28;20254;-68
2022/08/05 02:41:14;;;;;;;15.10;8.00;;;;;;;;;;5051480;28;20181;-68
2022/08/05 02:43:40;;;;;;;11.88;8.10;;;;;;;;;;5050839;28;20177;-68
2022/08/05 02:46:06;;;;;;;13.27;8.02;;;;;;;;;;5047790;28;20201;-68
2022/08/05 02:48:33;;;;;;;12.13;7.93;;;;;;;;;;5049343;28;20619;-68
2022/08/05 02:50:59;;;;;;;12.00;8.07;;;;;;;;;;5067660;28;20546;-68
2022/08/05 02:53:26;;;;;;;14.63;8.45;;;;;;;;;;5062851;28;20185;-68
2022/08/05 02:55:53;;;;;;;12.73;7.68;;;;;;;;;;5061568;28;20254;-68
2022/08/05 02:58:21;;;;;;;13.27;8.63;;;;;;;;;;5067682;28;20257;-68
2022/08/05 03:00:47;;;;;;;13.40;7.75;;;;;;;;;;5049287;28;20469;-68
2022/08/05 03:03:18;;;;;;;11.15;8.63;;;;;;;;;;5056953;28;20190;-68
2022/08/05 03:05:46;;;;;;;11.45;8.52;;;;;;;;;;5055299;28;20897;-68
2022/08/05 03:08:13;;;;;;;13.68;8.90;;;;;;;;;;5050398;28;20633;-68
2022/08/05 03:10:41;;;;;;;14.63;8.73;;;;;;;;;;5073900;28;20204;-68
2022/08/05 03:13:14;;;;;;;16.45;8.73;;;;;;;;;;5057271;28;20189;-68
2022/08/05 03:15:41;;;;;;;11.27;8.50;;;;;;;;;;5062952;28;20655;-68
2022/08/05 03:18:07;;;;;;;12.20;8.65;;;;;;;;;;5063333;28;20216;-68
2022/08/05 03:20:32;;;;;;;15.85;9.10;;;;;;;;;;5058683;28;20169;-68
2022/08/05 03:22:57;;;;;;;14.18;8.98;;;;;;;;;;5062811;28;20187;-68
2022/08/05 03:25:24;;;;;;;10.57;9.35;;;;;;;;;;5052156;28;20177;-68
2022/08/05 03:27:49;;;;;;;15.38;9.70;;;;;;;;;;5058838;28;20216;-68
2022/08/05 03:30:15;;;;;;;15.05;9.63;;;;;;;;;;5062116;28;20253;-68
2022/08/05 03:32:40;;;;;;;13.60;9.55;;;;;;;;;;5056863;28;20669;-68
2022/08/05 03:35:06;;;;;;;14.20;10.20;;;;;;;;;;5059393;28;20192;-68
2022/08/05 03:37:32;;;;;;;14.88;9.27;;;;;;;;;;5066996;28;20501;-68
2022/08/05 03:39:59;;;;;;;15.98;9.65;;;;;;;;;;5065485;28;20563;-68
2022/08/05 03:42:24;;;;;;;15.05;9.18;;;;;;;;;;5063183;28;20185;-68
2022/08/05 03:44:50;;;;;;;13.05;9.70;;;;;;;;;;5060355;28;20606;-68
2022/08/05 03:47:15;;;;;;;15.95;9.80;;;;;;;;;;5056740;28;20226;-68
2022/08/05 03:49:41;;;;;;;16.45;9.90;;;;;;;;;;5062627;28;20652;-68
2022/08/05 03:52:10;;;;;;;15.40;10.05;;;;;;;;;;5066183;28;20177;-68
2022/08/05 03:54:55;;;;;;;21.45;9.73;;;;;;;;;;5068396;28;20168;-68
2022/08/05 03:57:28;;;;;;;13.90;10.32;;;;;;;;;;5068994;28;20266;-68
2022/08/05 04:00:01;;;;;;;14.50;9.57;;;;;;;;;;5056124;28;20196;-68
2022/08/05 04:02:29;;;;;;;16.45;11.18;;;;;;;;;;5057258;28;20188;-67
2022/08/05 04:04:57;;;;;;;18.60;11.13;;;;;;;;;;5056733;28;20599;-67
2022/08/05 04:07:23;;;;;;;18.88;11.95;;;;;;;;;;5051956;28;20668;-67
2022/08/05 04:09:48;;;;;;;18.75;11.82;;;;;;;;;;5056416;28;20208;-67
2022/08/05 04:12:13;;;;;;;20.10;12.48;;;;;;;;;;5058767;28;20235;-67
2022/08/05 04:14:40;;;;;;;20.25;11.50;;;;;;;;;;5058445;28;20216;-67
2022/08/05 04:17:07;;;;;;;14.13;11.32;;;;;;;;;;5058920;28;20191;-67
2022/08/05 04:19:41;;;;;;;20.33;11.90;;;;;;;;;;5064706;28;20194;-67
2022/08/05 04:22:06;;;;;;;19.98;12.27;;;;;;;;;;5051592;28;20228;-67
2022/08/05 04:24:32;;;;;;;17.73;11.68;;;;;;;;;;5062754;28;20272;-67
2022/08/05 04:26:57;;;;;;;18.15;11.90;;;;;;;;;;5064283;28;20224;-68
2022/08/05 04:29:22;;;;;;;21.90;12.85;;;;;;;;;;5067876;28;20260;-67
2022/08/05 04:31:48;;;;;;;20.40;12.77;;;;;;;;;;5057003;28;20674;-67
2022/08/05 04:34:13;;;;;;;21.05;12.77;;;;;;;;;;5061689;28;20706;-67
2022/08/05 04:36:38;;;;;;;17.13;11.90;;;;;;;;;;5062747;28;20212;-68
2022/08/05 04:39:04;;;;;;;20.25;13.00;;;;;;;;;;5060972;28;20570;-68
2022/08/05 04:41:30;;;;;;;20.15;13.23;;;;;;;;;;5055460;28;20624;-69
2022/08/05 04:43:56;;;;;;;22.75;13.40;;;;;;;;;;5057951;28;20216;-67
2022/08/05 04:46:21;;;;;;;21.63;14.00;;;;;;;;;;5058335;28;20235;-68
2022/08/05 04:48:46;;;;;;;17.88;12.55;;;;;;;;;;5057016;28;20173;-68
2022/08/05 04:51:12;;;;;;;19.02;12.55;;;;;;;;;;5057881;28;20182;-68
2022/08/05 04:53:38;;;;;;;16.92;13.20;;;;;;;;;;5053817;28;20252;-68
2022/08/05 04:56:04;;;;;;;20.65;13.23;;;;;;;;;;5054865;28;20210;-69
2022/08/05 04:58:29;;;;;;;18.48;13.27;;;;;;;;;;5058159;28;20255;-68
2022/08/05 05:00:54;;;;;;;23.95;13.95;;;;;;;;;;5058874;28;20345;-68
2022/08/05 05:03:19;;;;;;;22.50;13.52;;;;;;;;;;5057489;28;20264;-68
2022/08/05 05:05:45;;;;;;;15.05;12.35;;;;;;;;;;5069730;28;20264;-67
2022/08/05 05:08:10;;;;;;;22.05;13.80;;;;;;;;;;5057849;28;20261;-67
2022/08/05 05:10:43;;;;;;;25.88;14.35;;;;;;;;;;5052920;28;20178;-69
2022/08/05 05:13:10;;;;;;;20.60;12.90;;;;;;;;;;5054614;28;20188;-67
2022/08/05 05:15:36;;;;;;;20.40;12.90;;;;;;;;;;5058162;28;20181;-67
2022/08/05 05:18:02;;;;;;;20.38;13.05;;;;;;;;;;5062535;28;20182;-67
2022/08/05 05:20:27;;;;;;;19.10;13.02;;;;;;;;;;5057981;28;20178;-67
2022/08/05 05:22:52;;;;;;;19.23;12.40;;;;;;;;;;5059020;28;20204;-67
2022/08/05 05:25:18;;;;;;;16.75;12.48;;;;;;;;;;5052940;28;20200;-68
2022/08/05 05:27:44;;;;;;;17.73;11.60;;;;;;;;;;5054610;28;20668;-68
2022/08/05 05:30:10;;;;;;;19.05;12.77;;;;;;;;;;5055270;28;20201;-68
2022/08/05 05:32:35;;;;;;;18.95;13.32;;;;;;;;;;5057549;28;20285;-65
2022/08/05 05:35:01;;;;;;;20.70;12.65;;;;;;;;;;5052357;28;20197;-68
2022/08/05 05:37:26;;;;;;;21.90;12.27;;;;;;;;;;5056893;28;20185;-68
2022/08/05 05:39:51;;;;;;;19.92;12.52;;;;;;;;;;5053742;28;20197;-68
2022/08/05 05:42:17;;;;;;;20.17;12.55;;;;;;;;;;5049883;28;20213;-68
2022/08/05 05:44:42;;;;;;;18.35;12.25;;;;;;;;;;5055290;28;20730;-68
2022/08/05 05:47:07;;;;;;;19.77;12.20;;;;;;;;;;5048870;28;20189;-68
2022/08/05 05:49:33;;;;;;;20.38;12.35;;;;;;;;;;5052149;28;20174;-68
2022/08/05 05:51:58;;;;;;;17.33;11.65;;;;;;;;;;5061967;28;20657;-68
2022/08/05 05:54:23;;;;;;;20.67;12.55;;;;;;;;;;5058583;28;20185;-68
2022/08/05 05:56:49;;;;;;;19.73;12.00;;;;;;;;;;5062843;28;20278;-68
2022/08/05 05:59:14;;;;;;;21.27;11.55;;;;;;;;;;5059678;28;20285;-68
2022/08/05 06:01:41;;;;;;;14.93;10.35;;;;;;;;;;5053005;28;20242;-68
2022/08/05 06:04:11;;;;;;;16.58;11.30;;;;;;;;;;5055055;28;20181;-68
2022/08/05 06:06:37;;;;;;;15.55;10.95;;;;;;;;;;5050776;28;20594;-68
2022/08/05 06:09:04;;;;;;;15.30;10.88;;;;;;;;;;5048986;28;20184;-68
2022/08/05 06:11:31;;;;;;;15.88;10.77;;;;;;;;;;5059825;28;20177;-68
2022/08/05 06:13:56;;;;;;;16.73;11.27;;;;;;;;;;5062087;28;20222;-68
2022/08/05 06:16:22;;;;;;;16.20;11.25;;;;;;;;;;5056399;28;20399;-68
2022/08/05 06:18:47;;;;;;;18.02;11.00;;;;;;;;;;5051816;28;20566;-68
2022/08/05 06:21:13;;;;;;;17.88;11.85;;;;;;;;;;5049577;28;20173;-68
2022/08/05 06:23:38;;;;;;;15.85;10.93;;;;;;;;;;5055382;28;20682;-69
2022/08/05 06:26:04;;;;;;;12.65;10.63;;;;;;;;;;5057259;28;20316;-68
2022/08/05 06:28:29;;;;;;;18.98;10.88;;;;;;;;;;5057066;28;20178;-68
2022/08/05 06:30:54;;;;;;;15.07;9.95;;;;;;;;;;5053258;28;20578;-69
2022/08/05 06:33:20;;;;;;;14.25;10.40;;;;;;;;;;5048890;28;20192;-68
2022/08/05 06:35:45;;;;;;;13.68;10.27;;;;;;;;;;5051205;28;20522;-68
2022/08/05 06:38:10;;;;;;;16.15;9.90;;;;;;;;;;5049079;28;20207;-68
2022/08/05 06:40:36;;;;;;;15.38;10.65;;;;;;;;;;5047473;28;20185;-66
2022/08/05 06:43:01;;;;;;;14.35;10.50;;;;;;;;;;5052636;28;20181;-67
2022/08/05 06:45:26;;;;;;;15.18;10.43;;;;;;;;;;5058490;28;20653;-67
2022/08/05 06:47:52;;;;;;;19.50;11.20;;;;;;;;;;5050887;28;20231;-67
2022/08/05 06:50:17;;;;;;;12.82;10.48;;;;;;;;;;5050616;28;20254;-68
2022/08/05 06:52:43;;;;;;;15.30;11.18;;;;;;;;;;5054731;28;20176;-68
2022/08/05 06:55:08;;;;;;;16.63;10.80;;;;;;;;;;5054372;28;20184;-67
2022/08/05 06:57:33;;;;;;;13.90;10.25;;;;;;;;;;5057269;28;20263;-67
2022/08/05 06:59:58;;;;;;;17.42;11.13;;;;;;;;;;5055097;28;20581;-67
2022/08/05 07:02:24;;;;;;;18.00;11.55;;;;;;;;;;5053677;28;20188;-68
2022/08/05 07:04:49;;;;;;;17.02;11.02;;;;;;;;;;5054394;28;20180;-67
2022/08/05 07:07:15;;;;;;;17.67;12.77;;;;;;;;;;5047970;28;20193;-68
2022/08/05 07:09:40;;;;;;;15.13;10.60;;;;;;;;;;5054069;28;20652;-67
2022/08/05 07:12:06;;;;;;;14.82;10.13;;;;;;;;;;5055717;28;20181;-67
2022/08/05 07:17:15;;;;;;;12.18;9.98;;;;;;;;;;5060113;28;20626;-68
2022/08/05 07:19:40;;;;;;;16.58;10.57;;;;;;;;;;5057445;28;20201;-68
2022/08/05 07:22:06;;;;;;;13.00;9.10;;;;;;;;;;5060017;28;20875;-67
2022/08/05 07:24:31;;;;;;;10.68;8.70;;;;;;;;;;5058808;28;20200;-67
2022/08/05 07:26:56;;;;;;;10.60;8.10;;;;;;;;;;5052779;28;20225;-67
2022/08/05 07:29:22;;;;;;;9.80;7.68;;;;;;;;;;5059860;28;20185;-67
2022/08/05 07:31:47;;;;;;;13.18;7.50;;;;;;;;;;5060341;28;20205;-67
2022/08/05 07:34:12;;;;;;;9.75;7.40;;;;;;;;;;5058128;28;20645;-68
2022/08/05 07:36:38;;;;;;;11.05;6.60;;;;;;;;;;5061542;28;20180;-67
2022/08/05 07:39:05;;;;;;;12.60;7.15;;;;;;;;;;5059267;28;20189;-67
2022/08/05 07:41:31;;;;;;;11.45;7.18;;;;;;;;;;5060113;28;20184;-67
2022/08/05 07:43:57;;;;;;;14.25;6.60;;;;;;;;;;5051448;28;20238;-67
2022/08/05 07:46:28;;;;;;;12.02;6.80;;;;;;;;;;5059631;28;20201;-67
2022/08/05 07:48:55;;;;;;;10.57;6.25;;;;;;;;;;5058705;28;20589;-67
2022/08/05 07:51:20;;;;;;;10.10;6.38;;;;;;;;;;5054929;28;20207;-67
2022/08/05 07:53:45;;;;;;;9.73;6.18;;;;;;;;;;5056722;28;20720;-67
2022/08/05 07:56:11;;;;;;;13.20;6.38;;;;;;;;;;5051738;28;20186;-67
2022/08/05 07:58:36;;;;;;;9.40;6.82;;;;;;;;;;5048598;28;20216;-67
2022/08/05 08:01:02;;;;;;;11.85;7.43;;;;;;;;;;5061234;28;20177;-67
2022/08/05 08:03:27;;;;;;;11.60;7.72;;;;;;;;;;5052002;28;20556;-67
2022/08/05 08:05:52;;;;;;;7.95;6.45;;;;;;;;;;5056243;28;20213;-67
2022/08/05 08:08:18;;;;;;;11.43;7.35;;;;;;;;;;5054455;28;20197;-67
2022/08/05 08:10:44;;;;;;;11.25;6.95;;;;;;;;;;5056265;28;20178;-67
2022/08/05 08:13:10;;;;;;;13.02;8.05;;;;;;;;;;5055534;28;20181;-67
2022/08/05 08:15:35;;;;;;;13.85;7.05;;;;;;;;;;5053612;28;20185;-67
2022/08/05 08:18:01;;;;;;;11.25;7.45;;;;;;;;;;5056657;28;20905;-67
2022/08/05 08:20:26;;;;;;;11.07;6.95;;;;;;;;;;5053466;28;20327;-67
2022/08/05 08:22:54;;;;;;;7.70;5.88;;;;;;;;;;5051568;28;20196;-66
2022/08/05 08:25:20;;;;;;;14.27;6.60;;;;;;;;;;5060592;28;20177;-67
2022/08/05 08:27:45;;;;;;;10.30;7.05;;;;;;;;;;5054148;28;20190;-66
2022/08/05 08:30:12;;;;;;;9.27;6.38;;;;;;;;;;5053430;28;20173;-66
2022/08/05 08:32:37;;;;;;;7.22;5.85;;;;;;;;;;5052969;28;20547;-67
2022/08/05 08:35:05;;;;;;;9.75;5.20;;;;;;;;;;5049689;28;20645;-66
2022/08/05 08:37:30;;;;;;;9.82;5.03;;;;;;;;;;5056627;28;20201;-65
2022/08/05 08:39:56;;;;;;;7.32;3.75;;;;;;;;;;5049197;28;20228;-66
2022/08/05 08:42:22;;;;;;;8.13;3.92;;;;;;;;;;5054537;28;20227;-66
2022/08/05 08:44:48;;;;;;;9.07;3.88;;;;;;;;;;5058274;28;20640;-66
2022/08/05 08:47:15;;;;;;;6.53;3.30;;;;;;;;;;5055114;28;20210;-65
2022/08/05 08:49:43;;;;;;;7.10;3.05;;;;;;;;;;5053349;28;20177;-65
2022/08/05 08:52:17;;;;;;;5.47;3.17;;;;;;;;;;5056252;28;20606;-67
2022/08/05 08:54:43;;;;;;;7.18;3.08;;;;;;;;;;5051405;28;20207;-66
2022/08/05 08:57:10;;;;;;;6.22;2.90;;;;;;;;;;5050242;28;20185;-66
2022/08/05 08:59:36;;;;;;;4.97;2.50;;;;;;;;;;5048923;28;20205;-65
2022/08/05 09:02:05;;;;;;;6.35;2.55;;;;;;;;;;5054521;28;20264;-66
2022/08/05 09:04:35;;;;;;;6.15;3.03;;;;;;;;;;5057369;28;20177;-66
2022/08/05 09:07:00;;;;;;;7.70;2.92;;;;;;;;;;5062372;28;20188;-66
2022/08/05 09:09:26;;;;;;;4.72;2.38;;;;;;;;;;5064779;28;20223;-67
2022/08/05 09:11:51;;;;;;;6.07;2.28;;;;;;;;;;5049752;28;20678;-66
2022/08/05 09:14:17;;;;;;;3.75;2.25;;;;;;;;;;5051368;28;20212;-65
2022/08/05 09:16:42;;;;;;;6.18;2.35;;;;;;;;;;5055088;28;20186;-66
2022/08/05 09:19:08;;;;;;;3.13;1.98;;;;;;;;;;5050644;28;20194;-65
2022/08/05 09:21:34;;;;;;;4.65;2.40;;;;;;;;;;5048500;28;20193;-66
2022/08/05 09:24:07;;;;;;;10.57;2.58;;;;;;;;;;5052612;28;20181;-66
2022/08/05 09:26:34;;;;;;;5.57;2.20;;;;;;;;;;5053226;28;20235;-65
2022/08/05 09:29:03;;;;;;;7.03;1.85;;;;;;;;;;5050824;28;20178;-66
2022/08/05 09:31:29;;;;;;;4.35;1.80;;;;;;;;;;5050278;28;20603;-66
2022/08/05 09:34:02;;;;;;;4.32;1.67;;;;;;;;;;5048480;28;20192;-66
2022/08/05 09:36:56;;;;;;;3.67;1.50;;;;;;;;;;5055763;28;20183;-65
2022/08/05 09:39:23;;;;;;;4.97;1.58;;;;;;;;;;5047449;28;20241;-64
2022/08/05 09:42:00;;;;;;;4.70;1.25;;;;;;;;;;5057875;28;20644;-64
2022/08/05 09:44:41;;;;;;;2.83;1.50;;;;;;;;;;5061836;28;20189;-66
2022/08/05 09:47:14;;;;;;;4.75;1.45;;;;;;;;;;5052729;28;20644;-67
2022/08/05 09:49:44;;;;;;;4.53;1.30;;;;;;;;;;5048432;28;20181;-66
2022/08/05 09:52:35;;;;;;;2.53;1.10;;;;;;;;;;5060632;28;20197;-65
2022/08/05 09:55:11;;;;;;;1.67;0.98;;;;;;;;;;5054677;28;20196;-65
2022/08/05 09:57:38;;;;;;;3.78;1.25;;;;;;;;;;5052158;28;20188;-65
2022/08/05 10:00:11;;;;;;;2.30;1.05;;;;;;;;;;5065620;28;20196;-65
2022/08/05 10:02:48;;;;;;;2.88;1.00;;;;;;;;;;5058298;28;20668;-65
2022/08/05 10:05:17;;;;;;;2.97;1.17;;;;;;;;;;5060068;28;20255;-64
2022/08/05 10:07:57;;;;;;;1.27;0.70;;;;;;;;;;5053056;28;20272;-65
2022/08/05 10:10:31;;;;;;;4.78;0.77;;;;;;;;;;5067694;28;20551;-65
2022/08/05 10:13:00;;;;;;;4.50;1.20;;;;;;;;;;5050096;28;20274;-65
2022/08/05 10:15:37;;;;;;;2.47;1.40;;;;;;;;;;5059613;28;20184;-65
2022/08/05 10:18:07;;;;;;;2.75;0.98;;;;;;;;;;5064661;28;20181;-65
2022/08/05 10:20:36;;;;;;;5.55;0.90;;;;;;;;;;5053981;28;20836;-65
2022/08/05 10:23:01;;;;;;;3.15;0.93;;;;;;;;;;5058085;28;20687;-65
2022/08/05 10:25:27;;;;;;;2.13;0.70;;;;;;;;;;5060118;28;20181;-65
2022/08/05 10:27:53;;;;;;;3.08;0.90;;;;;;;;;;5056247;28;20188;-66
2022/08/05 10:30:19;;;;;;;2.53;0.60;;;;;;;;;;5055940;28;20310;-66
2022/08/05 10:32:45;;;;;;;1.98;0.65;;;;;;;;;;5062044;28;20247;-64
2022/08/05 10:35:12;;;;;;;1.67;0.63;;;;;;;;;;5063664;28;20181;-65
2022/08/05 10:37:38;;;;;;;2.90;0.55;;;;;;;;;;5062119;28;20259;-65
2022/08/05 10:40:05;;;;;;;4.45;0.52;;;;;;;;;;5049119;28;20551;-66
2022/08/05 10:42:35;;;;;;;2.08;0.60;;;;;;;;;;5060616;28;20189;-67
2022/08/05 10:45:02;;;;;;;1.08;0.55;;;;;;;;;;5059616;28;20217;-67
2022/08/05 10:47:35;;;;;;;0.40;0.40;;;;;;;;;;5046824;28;20181;-67
2022/08/05 10:50:15;;;;;;;4.63;1.38;;;;;;;;;;5053079;28;20176;-66
2022/08/05 10:52:56;;;;;;;2.50;0.95;;;;;;;;;;5058834;28;20199;-67
2022/08/05 10:55:23;;;;;;;3.42;0.80;;;;;;;;;;5062299;28;20271;-68
2022/08/05 10:58:06;;;;;;;2.20;0.60;;;;;;;;;;5064313;28;20168;-68
2022/08/05 11:00:31;;;;;;;1.30;0.40;;;;;;;;;;5057083;28;20327;-66
2022/08/05 11:03:06;;;;;;;1.90;0.57;;;;;;;;;;5048372;28;20193;-65
2022/08/05 11:05:32;;;;;;;1.83;0.50;;;;;;;;;;5051977;28;20192;-66
2022/08/05 11:08:01;;;;;;;1.75;0.43;;;;;;;;;;5048372;28;20185;-71
2022/08/05 11:10:27;;;;;;;2.40;0.68;;;;;;;;;;5048561;28;20231;-66
2022/08/05 11:12:52;;;;;;;1.85;0.55;;;;;;;;;;5050999;28;20177;-69
2022/08/05 11:15:45;;;;;;;2.45;0.50;;;;;;;;;;5059827;28;20215;-65
2022/08/05 11:18:13;;;;;;;0.77;0.60;;;;;;;;;;5063457;28;20203;-70
2022/08/05 11:20:44;;;;;;;4.22;0.47;;;;;;;;;;5064610;28;20546;-67
2022/08/05 11:23:34;;;;;;;1.33;0.50;;;;;;;;;;5065120;28;20212;-65
2022/08/05 11:26:08;;;;;;;0.82;0.35;;;;;;;;;;5055338;28;20649;-66
2022/08/05 11:28:33;;;;;;;3.28;0.40;;;;;;;;;;5055362;28;20555;-68
2022/08/05 11:31:02;;;;;;;2.20;0.50;;;;;;;;;;5060699;28;20184;-65
2022/08/05 11:33:31;;;;;;;4.15;0.60;;;;;;;;;;5057381;28;20217;-67
2022/08/05 11:36:02;;;;;;;4.50;0.45;;;;;;;;;;4353307;28;10000849;-66
2022/08/05 11:38:43;;;;;;;2.17;0.60;;;;;;;;;;5064583;28;20375;-66
2022/08/05 11:41:24;;;;;;;1.52;0.50;;;;;;;;;;5046572;28;20238;-66
2022/08/05 11:43:53;;;;;;;3.30;0.40;;;;;;;;;;5045127;28;20206;-66
2022/08/05 11:46:28;;;;;;;1.13;0.50;;;;;;;;;;5062552;28;20388;-65
2022/08/05 11:48:54;;;;;;;4.95;0.60;;;;;;;;;;5063070;28;20184;-66
2022/08/05 11:51:20;;;;;;;6.30;0.80;;;;;;;;;;5053965;28;20177;-65
2022/08/05 11:53:46;;;;;;;3.85;0.60;;;;;;;;;;5063968;28;20184;-66
2022/08/05 11:56:11;;;;;;;2.22;0.70;;;;;;;;;;5062805;28;20195;-76
2022/08/05 11:58:39;;;;;;;2.13;0.60;;;;;;;;;;5059864;28;20717;-67
2022/08/05 12:01:13;;;;;;;1.30;0.35;;;;;;;;;;5067380;28;20555;-68
2022/08/05 12:03:43;;;;;;;3.60;0.55;;;;;;;;;;5056815;28;20276;-66
2022/08/05 12:06:09;;;;;;;0.47;0.40;;;;;;;;;;5057280;28;20212;-65
2022/08/05 12:08:48;;;;;;;1.23;0.40;;;;;;;;;;5057596;28;20226;-66
2022/08/05 12:11:25;;;;;;;1.75;0.40;;;;;;;;;;5059615;28;20193;-65
2022/08/05 12:13:59;;;;;;;2.15;0.55;;;;;;;;;;5061461;28;20242;-66
2022/08/05 12:16:26;;;;;;;2.25;0.50;;;;;;;;;;5054010;28;20189;-68
2022/08/05 12:18:52;;;;;;;1.13;0.35;;;;;;;;;;5067039;28;20205;-66
2022/08/05 12:21:22;;;;;;;2.15;0.50;;;;;;;;;;5053062;28;20297;-66
2022/08/05 12:24:05;;;;;;;1.55;0.40;;;;;;;;;;5058203;28;20189;-68
2022/08/05 12:26:43;;;;;;;2.60;0.50;;;;;;;;;;5051066;28;20228;-67
2022/08/05 12:29:18;;;;;;;0.80;0.30;;;;;;;;;;5053655;28;20262;-73
2022/08/05 12:31:57;;;;;;;4.90;0.52;;;;;;;;;;5054808;28;20594;-66
2022/08/05 12:34:29;;;;;;;0.57;0.20;;;;;;;;;;5055318;28;20256;-66
2022/08/05 12:36:56;;;;;;;0.77;0.30;;;;;;;;;;5051529;28;20235;-67
2022/08/05 12:39:23;;;;;;;1.20;0.50;;;;;;;;;;5061738;28;20208;-66
2022/08/05 12:41:49;;;;;;;3.92;0.85;;;;;;;;;;5062878;28;20180;-66
2022/08/05 12:44:16;;;;;;;1.40;0.30;;;;;;;;;;5060868;28;20189;-66
2022/08/05 12:46:42;;;;;;;0.47;0.30;;;;;;;;;;5060648;28;20537;-65
2022/08/05 12:49:10;;;;;;;1.45;0.30;;;;;;;;;;5060416;28;20230;-66
2022/08/05 12:51:49;;;;;;;2.17;0.40;;;;;;;;;;5062925;28;20177;-66
2022/08/05 12:54:25;;;;;;;1.08;0.50;;;;;;;;;;5054950;28;20184;-67
2022/08/05 12:56:53;;;;;;;2.72;0.43;;;;;;;;;;5050502;28;20195;-66
2022/08/05 12:59:22;;;;;;;3.15;0.30;;;;;;;;;;5050129;28;20743;-66
2022/08/05 13:02:04;;;;;;;2.25;0.38;;;;;;;;;;5053464;28;20187;-67
2022/08/05 13:04:35;;;;;;;1.40;0.30;;;;;;;;;;5051261;28;20667;-66
2022/08/05 13:07:06;;;;;;;0.40;0.20;;;;;;;;;;5049021;28;20192;-65
2022/08/05 13:09:33;;;;;;;0.90;0.40;;;;;;;;;;5054299;28;20264;-67
2022/08/05 13:12:06;;;;;;;0.65;0.30;;;;;;;;;;5056470;28;20181;-66
2022/08/05 13:14:40;;;;;;;0.65;0.35;;;;;;;;;;5053996;28;20190;-67
2022/08/05 13:17:09;;;;;;;2.05;0.45;;;;;;;;;;5053730;28;20188;-67
2022/08/05 13:19:34;;;;;;;0.95;0.50;;;;;;;;;;5053650;28;20221;-66
2022/08/05 13:21:59;;;;;;;1.98;0.40;;;;;;;;;;5051933;28;20182;-76
2022/08/05 13:24:25;;;;;;;4.15;0.40;;;;;;;;;;5047602;28;20277;-68
2022/08/05 13:26:51;;;;;;;1.02;0.40;;;;;;;;;;5050558;28;20242;-72
2022/08/05 13:29:18;;;;;;;0.60;0.40;;;;;;;;;;5049993;28;20204;-67
2022/08/05 13:31:44;;;;;;;2.92;0.40;;;;;;;;;;5051594;28;20267;-66
2022/08/05 13:34:10;;;;;;;0.63;0.40;;;;;;;;;;5054294;28;20667;-66
2022/08/05 13:36:35;;;;;;;4.57;0.45;;;;;;;;;;5049215;28;20218;-65
2022/08/05 13:39:03;;;;;;;0.55;0.40;;;;;;;;;;5057308;28;20203;-66
2022/08/05 13:41:29;;;;;;;1.67;0.38;;;;;;;;;;5048417;28;20193;-70
2022/08/05 13:43:54;;;;;;;1.90;0.45;;;;;;;;;;5050102;28;20177;-67
2022/08/05 13:46:24;;;;;;;1.40;0.60;;;;;;;;;;5055723;28;20192;-71
2022/08/05 13:48:49;;;;;;;1.83;0.35;;;;;;;;;;5051037;28;20248;-66
2022/08/05 13:51:15;;;;;;;1.48;0.30;;;;;;;;;;5051528;28;20550;-66
2022/08/05 13:53:41;;;;;;;1.30;0.32;;;;;;;;;;5049483;28;20252;-67
2022/08/05 13:56:07;;;;;;;1.25;0.30;;;;;;;;;;5051225;28;20300;-68
2022/08/05 13:58:33;;;;;;;1.38;0.40;;;;;;;;;;5052089;28;20201;-67
2022/08/05 14:00:59;;;;;;;2.75;0.43;;;;;;;;;;5050091;28;20269;-65
2022/08/05 14:03:26;;;;;;;0.65;0.30;;;;;;;;;;5048391;28;20256;-65
2022/08/05 14:05:51;;;;;;;2.35;0.50;;;;;;;;;;5052908;28;20193;-66
2022/08/05 14:08:17;;;;;;;0.68;0.40;;;;;;;;;;5049106;28;20185;-74
2022/08/05 14:10:42;;;;;;;3.13;0.40;;;;;;;;;;5050002;28;20691;-68
2022/08/05 14:13:08;;;;;;;1.23;0.35;;;;;;;;;;5054198;28;20264;-74
2022/08/05 14:15:34;;;;;;;1.42;0.40;;;;;;;;;;5051490;28;20196;-65
2022/08/05 14:18:00;;;;;;;1.48;0.30;;;;;;;;;;5050026;28;20410;-66
2022/08/05 14:20:29;;;;;;;2.47;0.22;;;;;;;;;;5047853;28;20462;-67
2022/08/05 14:22:55;;;;;;;3.25;0.30;;;;;;;;;;5051224;28;20197;-65
2022/08/05 14:25:20;;;;;;;2.78;0.40;;;;;;;;;;5047469;28;20177;-66
2022/08/05 14:27:50;;;;;;;1.23;0.30;;;;;;;;;;5049517;28;20697;-68
2022/08/05 14:30:16;;;;;;;1.38;0.30;;;;;;;;;;5048634;28;20646;-66
2022/08/05 14:32:41;;;;;;;1.15;0.30;;;;;;;;;;5051906;28;20204;-71
2022/08/05 14:35:08;;;;;;;0.95;0.38;;;;;;;;;;5048444;28;20634;-66
2022/08/05 14:37:34;;;;;;;0.63;0.30;;;;;;;;;;5050500;28;20196;-68
2022/08/05 14:39:59;;;;;;;1.15;0.30;;;;;;;;;;5050628;28;20198;-72
2022/08/05 14:42:24;;;;;;;2.03;0.30;;;;;;;;;;5051661;28;20215;-69